Time;durP1;ratioP1;P1;durP2;ratioP2;P2;SDS_P1;SDS_P2;PMS_P1;PMS_P2;Temp;Humidity;BMP_temperature;BMP_pressure;BME280_temperature;BME280_humidity;BME280_pressure;Samples;Min_cycle;Max_cycle;Signal;HPM_P1;HPM_P2
2022/10/22 00:00:14;;;;;;;20.03;15.47;;;;;;;14.93;100.00;100977.50;4943918;29;20244;-78
2022/10/22 00:02:39;;;;;;;18.07;15.03;;;;;;;14.95;100.00;100975.75;4949757;29;21832;-77
2022/10/22 00:05:05;;;;;;;16.90;14.60;;;;;;;14.93;100.00;100974.91;4949874;29;20197;-76
2022/10/22 00:07:31;;;;;;;21.73;15.17;;;;;;;14.92;100.00;100980.91;4947575;28;20209;-78
2022/10/22 00:09:56;;;;;;;18.20;14.70;;;;;;;14.91;100.00;100979.19;4949769;29;20204;-77
2022/10/22 00:12:22;;;;;;;17.27;14.97;;;;;;;14.93;100.00;100977.50;4944543;28;20225;-76
2022/10/22 00:14:48;;;;;;;20.60;14.10;;;;;;;14.92;100.00;100977.47;4946720;29;20209;-77
2022/10/22 00:17:14;;;;;;;20.80;14.67;;;;;;;14.93;100.00;100989.50;4949402;28;20185;-78
2022/10/22 00:19:39;;;;;;;18.70;14.50;;;;;;;14.92;100.00;100987.78;4950812;28;20267;-77
2022/10/22 00:22:06;;;;;;;17.70;14.97;;;;;;;14.91;100.00;100994.66;4949202;28;20240;-78
2022/10/22 00:24:33;;;;;;;17.40;14.27;;;;;;;14.91;100.00;100993.81;4954660;28;20189;-78
2022/10/22 00:26:58;;;;;;;16.50;14.30;;;;;;;14.93;100.00;100992.09;4952667;28;20218;-78
2022/10/22 00:29:24;;;;;;;18.70;14.93;;;;;;;14.92;100.00;100993.78;4954874;28;20563;-77
2022/10/22 00:31:50;;;;;;;20.67;15.63;;;;;;;14.91;100.00;100997.25;4954306;28;20271;-77
2022/10/22 00:34:17;;;;;;;22.37;15.13;;;;;;;14.90;100.00;101000.69;4954537;28;20204;-77
2022/10/22 00:36:42;;;;;;;18.20;14.33;;;;;;;14.89;100.00;100998.09;4951422;29;20193;-77
2022/10/22 00:39:08;;;;;;;18.03;15.50;;;;;;;14.88;100.00;101001.53;4954708;28;20228;-78
2022/10/22 00:41:33;;;;;;;19.40;14.30;;;;;;;14.87;100.00;100999.81;4949044;29;20209;-78
2022/10/22 00:44:03;;;;;;;17.27;15.07;;;;;;;14.88;100.00;101007.53;4954401;28;20223;-78
2022/10/22 00:46:28;;;;;;;20.53;16.10;;;;;;;14.89;100.00;101004.13;4952875;29;20197;-77
2022/10/22 00:48:58;;;;;;;19.53;14.53;;;;;;;14.88;100.00;101004.09;4953264;29;20271;-78
2022/10/22 00:51:29;;;;;;;16.50;14.70;;;;;;;14.87;100.00;100997.22;4950843;28;20221;-77
2022/10/22 00:53:59;;;;;;;18.53;14.43;;;;;;;14.86;100.00;100998.94;4951775;29;20193;-77
2022/10/22 00:56:24;;;;;;;17.87;13.37;;;;;;;14.86;100.00;100991.19;4951826;29;20181;-77
2022/10/22 00:58:56;;;;;;;18.00;13.63;;;;;;;14.87;100.00;100999.81;4954255;28;20607;-78
2022/10/22 01:01:29;;;;;;;17.67;14.37;;;;;;;14.87;100.00;100995.50;4953693;28;20579;-78
2022/10/22 01:03:55;;;;;;;20.13;15.97;;;;;;;14.86;100.00;100996.34;4952811;29;20194;-77
2022/10/22 01:06:25;;;;;;;19.20;15.70;;;;;;;14.86;100.00;100985.16;4954287;28;20196;-77
2022/10/22 01:09:07;;;;;;;18.00;14.53;;;;;;;14.86;100.00;100998.06;4950506;29;20269;-77
2022/10/22 01:12:11;;;;;;;20.33;14.60;;;;;;;14.86;100.00;100991.19;4951910;29;20221;-79
2022/10/22 01:14:51;;;;;;;17.90;14.03;;;;;;;14.86;100.00;100991.19;4918485;29;20197;-77
2022/10/22 01:17:32;;;;;;;17.70;15.47;;;;;;;14.88;100.00;100994.63;4945906;29;20240;-78
2022/10/22 01:20:09;;;;;;;21.67;15.40;;;;;;;14.85;100.00;101004.06;4943043;29;20691;-78
2022/10/22 01:22:42;;;;;;;19.00;15.23;;;;;;;14.85;100.00;101004.94;4952669;29;20560;-77
2022/10/22 01:25:27;;;;;;;17.40;15.50;;;;;;;14.88;100.00;101011.84;4948898;29;20193;-78
2022/10/22 01:28:38;;;;;;;20.27;15.07;;;;;;;14.84;100.00;101005.81;4962937;28;20199;-77
2022/10/22 01:31:06;;;;;;;19.37;14.83;;;;;;;14.85;100.00;101012.69;4946821;29;20233;-77
2022/10/22 01:33:32;;;;;;;18.53;15.40;;;;;;;14.82;100.00;101011.81;4949068;28;20197;-77
2022/10/22 01:35:58;;;;;;;19.57;14.67;;;;;;;14.82;100.00;101010.09;4948725;29;20572;-78
2022/10/22 01:38:25;;;;;;;17.57;15.27;;;;;;;14.82;100.00;101015.25;4952166;29;20205;-78
2022/10/22 01:40:52;;;;;;;17.53;14.50;;;;;;;14.82;100.00;101022.13;4952048;29;20269;-77
2022/10/22 01:43:17;;;;;;;19.47;15.30;;;;;;;14.81;100.00;101017.81;4950548;29;20197;-77
2022/10/22 01:45:47;;;;;;;16.93;13.93;;;;;;;14.80;100.00;101026.41;4949111;29;20185;-77
2022/10/22 01:48:34;;;;;;;19.27;14.97;;;;;;;14.81;100.00;101031.56;4948770;28;20185;-77
2022/10/22 01:51:20;;;;;;;21.40;15.53;;;;;;;14.82;100.00;101033.28;4950209;29;20221;-78
2022/10/22 01:54:16;;;;;;;18.53;15.53;;;;;;;14.80;100.00;101023.81;4950467;29;20276;-77
2022/10/22 01:57:03;;;;;;;19.27;15.17;;;;;;;14.80;100.00;101035.00;4950165;29;20193;-77
2022/10/22 01:59:50;;;;;;;18.63;14.87;;;;;;;14.77;100.00;101026.38;4951362;28;20641;-76
2022/10/22 02:02:22;;;;;;;20.57;15.73;;;;;;;14.72;100.00;101018.63;4949526;29;20189;-77
2022/10/22 02:05:11;;;;;;;18.97;15.53;;;;;;;14.69;100.00;101005.72;4953108;28;20527;-76
2022/10/22 02:07:51;;;;;;;16.97;14.27;;;;;;;14.63;100.00;101005.69;4951593;29;20255;-77
2022/10/22 02:10:18;;;;;;;21.20;14.00;;;;;;;14.53;100.00;101000.47;4948682;29;20221;-77
2022/10/22 02:12:47;;;;;;;18.23;14.43;;;;;;;14.47;100.00;100992.72;4947135;29;20196;-76
2022/10/22 02:15:16;;;;;;;18.53;14.97;;;;;;;14.47;100.00;101000.44;4949820;28;20189;-79
2022/10/22 02:17:44;;;;;;;18.30;13.90;;;;;;;14.38;100.00;101001.25;4944687;29;20221;-78
2022/10/22 02:20:17;;;;;;;16.47;13.83;;;;;;;14.33;100.00;101004.66;4950908;28;20220;-78
2022/10/22 02:22:42;;;;;;;17.23;15.10;;;;;;;14.34;100.00;101016.66;4933219;28;20557;-78
2022/10/22 02:25:08;;;;;;;18.57;14.70;;;;;;;14.32;100.00;101011.50;4951182;28;20193;-77
2022/10/22 02:27:58;;;;;;;15.93;14.27;;;;;;;14.32;100.00;101010.66;4949356;28;20650;-78
2022/10/22 02:30:23;;;;;;;17.20;14.60;;;;;;;14.29;100.00;101008.06;4949115;29;20273;-78
2022/10/22 02:32:52;;;;;;;15.37;13.20;;;;;;;14.24;100.00;101008.03;4950923;28;20190;-77
2022/10/22 02:35:22;;;;;;;16.83;13.20;;;;;;;14.21;100.00;101009.69;4953443;28;20681;-76
2022/10/22 02:37:49;;;;;;;15.47;11.83;;;;;;;14.17;100.00;101002.75;4947831;29;20259;-77
2022/10/22 02:40:15;;;;;;;14.53;11.97;;;;;;;14.11;100.00;100995.00;4950730;28;20220;-76
2022/10/22 02:42:42;;;;;;;13.30;11.47;;;;;;;14.11;100.00;100995.88;4952572;28;20223;-77
2022/10/22 02:45:08;;;;;;;18.27;12.30;;;;;;;14.07;100.00;100995.81;4949287;28;20202;-76
2022/10/22 02:47:33;;;;;;;14.93;12.07;;;;;;;13.98;100.00;100995.75;4952007;29;20189;-78
2022/10/22 02:49:59;;;;;;;17.40;10.50;;;;;;;13.84;100.00;101005.94;4942639;29;20292;-79
2022/10/22 02:52:24;;;;;;;23.30;12.13;;;;;;;13.77;100.00;101003.31;4952164;28;20213;-78
2022/10/22 02:54:50;;;;;;;11.93;9.93;;;;;;;13.76;100.00;100999.84;4950492;29;20280;-78
2022/10/22 02:57:15;;;;;;;14.57;9.13;;;;;;;13.71;100.00;101000.69;4949818;28;20270;-78
2022/10/22 02:59:41;;;;;;;13.73;11.03;;;;;;;13.66;100.00;101002.31;4951731;28;20264;-79
2022/10/22 03:02:06;;;;;;;15.20;9.80;;;;;;;13.53;100.00;101008.22;4950275;28;20780;-79
2022/10/22 03:04:32;;;;;;;15.87;10.27;;;;;;;13.56;100.00;101008.25;4944190;29;20193;-78
2022/10/22 03:06:58;;;;;;;14.50;9.83;;;;;;;13.50;100.00;101015.91;4950626;29;20197;-78
2022/10/22 03:09:23;;;;;;;19.23;11.70;;;;;;;13.42;100.00;101010.69;4945277;28;20272;-78
2022/10/22 03:11:49;;;;;;;12.80;9.67;;;;;;;13.42;100.00;101012.38;4946904;29;20216;-77
2022/10/22 03:14:14;;;;;;;16.77;9.03;;;;;;;13.43;100.00;101014.09;4949911;29;20576;-78
2022/10/22 03:16:39;;;;;;;12.77;10.20;;;;;;;13.50;100.00;101019.34;4949503;28;20215;-78
2022/10/22 03:19:05;;;;;;;14.27;9.97;;;;;;;13.49;100.00;101016.75;4947829;29;20229;-78
2022/10/22 03:21:53;;;;;;;11.73;10.23;;;;;;;13.50;100.00;101021.94;4948888;28;20300;-77
2022/10/22 03:24:29;;;;;;;15.80;11.33;;;;;;;13.48;100.00;101023.59;4945053;28;20200;-78
2022/10/22 03:26:54;;;;;;;20.20;10.30;;;;;;;13.37;100.00;101021.75;4947940;29;20212;-78
2022/10/22 03:29:24;;;;;;;10.80;9.70;;;;;;;13.35;100.00;101020.91;4950261;28;20185;-77
2022/10/22 03:31:52;;;;;;;11.03;9.23;;;;;;;13.34;100.00;101020.03;4949473;29;20227;-77
2022/10/22 03:34:17;;;;;;;11.70;8.43;;;;;;;13.35;100.00;101029.47;4947442;28;20244;-78
2022/10/22 03:36:43;;;;;;;23.63;10.77;;;;;;;13.37;100.00;101027.78;4950529;29;20300;-77
2022/10/22 03:39:12;;;;;;;29.83;11.10;;;;;;;13.32;100.00;101042.31;4947670;29;20189;-77
2022/10/22 03:41:37;;;;;;;28.93;11.53;;;;;;;13.26;100.00;101042.22;4948256;29;20216;-77
2022/10/22 03:44:04;;;;;;;30.30;11.93;;;;;;;13.25;100.00;101047.38;4949740;28;20185;-77
2022/10/22 03:46:29;;;;;;;24.30;11.47;;;;;;;13.22;100.00;101053.31;4949587;28;20205;-77
2022/10/22 03:48:54;;;;;;;37.50;11.70;;;;;;;13.21;100.00;101051.59;4949362;28;20193;-77
2022/10/22 03:51:20;;;;;;;24.57;11.90;;;;;;;13.22;100.00;101047.31;4951120;28;20295;-79
2022/10/22 03:53:45;;;;;;;26.70;11.77;;;;;;;13.18;100.00;101055.84;4949813;28;20197;-77
2022/10/22 03:56:12;;;;;;;45.97;12.17;;;;;;;13.16;100.00;101049.81;4949247;28;20193;-77
2022/10/22 03:58:39;;;;;;;41.53;12.37;;;;;;;13.14;100.00;101059.22;4947472;29;20209;-77
2022/10/22 04:01:06;;;;;;;25.37;11.47;;;;;;;13.10;100.00;101050.59;4944850;29;20236;-77
2022/10/22 04:03:32;;;;;;;25.77;11.47;;;;;;;13.02;100.00;101047.06;4950700;28;20209;-77
2022/10/22 04:06:05;;;;;;;16.07;10.97;;;;;;;12.94;100.00;101046.94;4950938;28;20192;-77
2022/10/22 04:08:31;;;;;;;17.73;10.47;;;;;;;12.91;100.00;101046.88;4948355;28;20205;-77
2022/10/22 04:10:57;;;;;;;17.87;10.23;;;;;;;12.84;100.00;101055.38;4944924;29;20783;-78
2022/10/22 04:13:23;;;;;;;19.37;10.33;;;;;;;12.82;100.00;101056.19;4941748;29;20185;-78
2022/10/22 04:15:50;;;;;;;18.83;10.73;;;;;;;12.82;100.00;101056.19;4950439;28;20195;-77
2022/10/22 04:18:17;;;;;;;15.60;10.50;;;;;;;12.83;100.00;101060.50;4950030;29;20188;-78
2022/10/22 04:20:42;;;;;;;22.13;10.37;;;;;;;12.75;100.00;101062.94;4951467;28;20268;-78
2022/10/22 04:23:08;;;;;;;12.20;8.97;;;;;;;12.76;100.00;101067.25;4951625;28;20209;-78
2022/10/22 04:25:33;;;;;;;16.27;10.00;;;;;;;12.75;100.00;101073.22;4950423;29;20196;-77
2022/10/22 04:27:59;;;;;;;15.17;9.60;;;;;;;12.77;100.00;101065.56;4945933;29;20211;-77
2022/10/22 04:30:24;;;;;;;12.17;9.33;;;;;;;12.73;100.00;101068.91;4950249;28;20284;-76
2022/10/22 04:32:49;;;;;;;16.23;9.80;;;;;;;12.71;100.00;101071.47;4951534;28;20748;-77
2022/10/22 04:35:15;;;;;;;16.83;9.27;;;;;;;12.72;100.00;101073.19;4951556;28;20585;-77
2022/10/22 04:37:40;;;;;;;13.73;8.60;;;;;;;12.72;100.00;101070.59;4951622;28;20197;-77
2022/10/22 04:40:06;;;;;;;22.47;8.20;;;;;;;12.77;100.00;101074.09;4950033;29;20212;-78
2022/10/22 04:42:32;;;;;;;18.83;9.20;;;;;;;12.79;100.00;101079.28;4951408;28;20252;-77
2022/10/22 04:44:57;;;;;;;15.23;8.53;;;;;;;12.77;100.00;101078.41;4951549;28;20205;-76
2022/10/22 04:47:23;;;;;;;19.10;9.03;;;;;;;12.69;100.00;101080.00;4948403;28;20345;-76
2022/10/22 04:49:48;;;;;;;18.60;9.30;;;;;;;12.67;100.00;101077.38;4951502;28;20207;-77
2022/10/22 04:52:14;;;;;;;18.77;9.47;;;;;;;12.67;100.00;101074.81;4951190;28;20221;-78
2022/10/22 04:54:39;;;;;;;13.33;8.97;;;;;;;12.66;100.00;101072.22;4951583;28;20199;-76
2022/10/22 04:57:04;;;;;;;13.13;7.73;;;;;;;12.65;100.00;101073.06;4961844;28;20195;-77
2022/10/22 04:59:30;;;;;;;11.47;7.30;;;;;;;12.62;100.00;101073.00;4948757;28;20248;-77
2022/10/22 05:01:55;;;;;;;9.47;8.50;;;;;;;12.60;100.00;101073.03;4949793;29;20236;-77
2022/10/22 05:04:21;;;;;;;14.60;8.47;;;;;;;12.54;100.00;101084.91;4951303;28;20224;-77
2022/10/22 05:06:47;;;;;;;9.73;8.17;;;;;;;12.57;100.00;101084.94;4950078;28;20209;-77
2022/10/22 05:09:16;;;;;;;14.63;7.27;;;;;;;12.58;100.00;101091.81;4953667;28;20189;-78
2022/10/22 05:11:45;;;;;;;13.13;7.93;;;;;;;12.57;100.00;101095.22;4929504;29;20242;-76
2022/10/22 05:14:11;;;;;;;13.90;8.27;;;;;;;12.56;100.00;101093.47;4954408;28;20201;-76
2022/10/22 05:16:37;;;;;;;11.77;8.60;;;;;;;12.54;100.00;101096.03;4953649;29;20200;-78
2022/10/22 05:19:03;;;;;;;9.50;8.33;;;;;;;12.53;100.00;101089.16;4953343;29;20193;-78
2022/10/22 05:21:28;;;;;;;11.23;8.13;;;;;;;12.53;100.00;101094.31;4954477;28;20288;-78
2022/10/22 05:23:55;;;;;;;9.60;8.60;;;;;;;12.54;100.00;101095.19;4953324;29;20541;-79
2022/10/22 05:26:22;;;;;;;17.03;8.90;;;;;;;12.54;100.00;101097.75;4954494;28;20189;-78
2022/10/22 05:28:48;;;;;;;23.00;10.20;;;;;;;12.52;100.00;101084.88;4953302;29;20412;-78
2022/10/22 05:31:15;;;;;;;14.63;9.17;;;;;;;12.51;100.00;101093.44;4952760;28;20753;-78
2022/10/22 05:33:42;;;;;;;24.20;9.30;;;;;;;12.47;100.00;101099.34;4952848;29;20195;-77
2022/10/22 05:36:10;;;;;;;28.13;9.13;;;;;;;12.48;100.00;101095.94;4954211;28;20232;-77
2022/10/22 05:38:36;;;;;;;22.63;10.93;;;;;;;12.45;100.00;101095.03;4954362;28;20230;-77
2022/10/22 05:41:14;;;;;;;17.53;11.43;;;;;;;12.44;100.00;101101.03;4953946;28;20609;-77
2022/10/22 05:43:39;;;;;;;20.60;11.73;;;;;;;12.34;100.00;101100.00;4951263;29;20235;-77
2022/10/22 05:46:08;;;;;;;16.23;10.57;;;;;;;12.38;100.00;101094.06;4954086;28;20189;-78
2022/10/22 05:48:34;;;;;;;22.17;10.70;;;;;;;12.40;100.00;101094.09;4953130;29;20686;-76
2022/10/22 05:51:05;;;;;;;22.87;10.10;;;;;;;12.36;100.00;101107.72;4953754;28;20702;-77
2022/10/22 05:53:32;;;;;;;17.80;10.90;;;;;;;12.34;100.00;101106.81;4954026;28;20276;-77
2022/10/22 05:56:02;;;;;;;15.50;11.47;;;;;;;12.36;100.00;101108.56;4953828;28;20193;-77
2022/10/22 05:58:28;;;;;;;15.10;10.73;;;;;;;12.36;100.00;101105.16;4952755;29;20193;-77
2022/10/22 06:00:54;;;;;;;14.10;10.20;;;;;;;12.34;100.00;101107.69;4953884;28;20215;-76
2022/10/22 06:03:19;;;;;;;20.00;10.87;;;;;;;12.36;100.00;101110.28;4948112;28;20189;-77
2022/10/22 06:05:44;;;;;;;13.03;10.50;;;;;;;12.37;100.00;101115.47;4945864;28;20604;-79
2022/10/22 06:08:12;;;;;;;18.03;10.47;;;;;;;12.38;100.00;101117.19;4953422;28;20189;-77
2022/10/22 06:10:41;;;;;;;16.10;10.90;;;;;;;12.41;100.00;101126.66;4950665;28;20256;-76
2022/10/22 06:13:07;;;;;;;13.53;10.13;;;;;;;12.44;100.00;101129.28;4952019;29;20231;-78
2022/10/22 06:15:32;;;;;;;14.13;11.23;;;;;;;12.47;100.00;101127.63;4948394;28;20220;-79
2022/10/22 06:17:57;;;;;;;14.63;11.50;;;;;;;12.50;100.00;101119.94;4950321;29;20193;-78
2022/10/22 06:20:23;;;;;;;19.73;11.40;;;;;;;12.55;100.00;101123.47;4948406;28;20225;-77
2022/10/22 06:22:48;;;;;;;13.73;12.23;;;;;;;12.58;100.00;101122.66;4950025;29;20204;-76
2022/10/22 06:25:14;;;;;;;18.77;11.77;;;;;;;12.60;100.00;101129.53;4946341;29;20196;-77
2022/10/22 06:27:39;;;;;;;19.33;12.77;;;;;;;12.61;100.00;101127.81;4951801;29;20185;-77
2022/10/22 06:30:05;;;;;;;22.47;13.20;;;;;;;12.64;100.00;101148.44;4947405;29;20820;-77
2022/10/22 06:32:31;;;;;;;17.57;13.23;;;;;;;12.66;100.00;101137.34;4945364;28;20213;-74
2022/10/22 06:34:56;;;;;;;22.77;14.67;;;;;;;12.69;100.00;101145.09;4951217;28;20543;-77
2022/10/22 06:37:21;;;;;;;18.90;13.73;;;;;;;12.68;100.00;101133.06;4949850;28;20193;-77
2022/10/22 06:39:47;;;;;;;17.60;13.70;;;;;;;12.69;100.00;101133.94;4950869;29;20204;-76
2022/10/22 06:42:12;;;;;;;15.90;13.20;;;;;;;12.70;100.00;101133.09;4950286;28;20192;-77
2022/10/22 06:44:38;;;;;;;28.53;13.80;;;;;;;12.66;100.00;101139.91;4944325;29;20713;-78
2022/10/22 06:47:04;;;;;;;22.87;13.90;;;;;;;12.69;100.00;101145.09;4935321;28;20216;-76
2022/10/22 06:49:30;;;;;;;26.40;14.80;;;;;;;12.70;100.00;101148.50;4947417;29;20189;-77
2022/10/22 06:51:55;;;;;;;22.37;13.40;;;;;;;12.73;100.00;101148.56;4948325;28;20587;-76
2022/10/22 06:54:21;;;;;;;29.97;14.30;;;;;;;12.73;100.00;101148.56;4950654;28;20201;-77
2022/10/22 06:56:46;;;;;;;27.13;14.67;;;;;;;12.74;100.00;101151.16;4949578;29;20193;-77
2022/10/22 06:59:12;;;;;;;26.53;15.43;;;;;;;12.76;100.00;101146.06;4949995;28;20653;-77
2022/10/22 07:01:38;;;;;;;23.47;14.70;;;;;;;12.78;100.00;101150.38;4948809;29;20614;-78
2022/10/22 07:04:05;;;;;;;24.33;15.13;;;;;;;12.78;100.00;101150.38;4950492;28;20193;-77
2022/10/22 07:06:31;;;;;;;19.77;14.07;;;;;;;12.80;100.00;101148.69;4948376;28;21155;-76
2022/10/22 07:08:58;;;;;;;20.90;14.30;;;;;;;12.83;100.00;101151.31;4948117;29;20189;-77
2022/10/22 07:11:27;;;;;;;19.73;13.63;;;;;;;12.85;100.00;101159.91;4933910;28;20224;-77
2022/10/22 07:13:57;;;;;;;20.13;14.47;;;;;;;12.86;100.00;101160.78;4944564;29;20690;-77
2022/10/22 07:16:23;;;;;;;24.20;15.80;;;;;;;12.88;100.00;101165.09;4949211;28;20204;-77
2022/10/22 07:18:48;;;;;;;19.37;15.10;;;;;;;12.91;100.00;101167.69;4948101;28;20204;-78
2022/10/22 07:21:16;;;;;;;19.67;15.33;;;;;;;12.97;100.00;101164.38;4949043;28;20269;-77
2022/10/22 07:23:41;;;;;;;16.63;14.43;;;;;;;13.01;100.00;101179.03;4950472;28;20296;-76
2022/10/22 07:26:08;;;;;;;16.93;14.23;;;;;;;13.06;100.00;101173.94;4951564;28;20288;-77
2022/10/22 07:28:35;;;;;;;19.07;15.10;;;;;;;13.10;100.00;101186.00;4949012;28;20192;-76
2022/10/22 07:31:01;;;;;;;18.07;13.77;;;;;;;13.10;100.00;101188.56;4949859;28;20224;-77
2022/10/22 07:33:26;;;;;;;19.33;14.80;;;;;;;13.15;100.00;101190.38;4949548;28;20252;-77
2022/10/22 07:36:00;;;;;;;17.03;14.13;;;;;;;13.25;100.00;101189.66;4951290;28;20185;-77
2022/10/22 07:38:27;;;;;;;16.30;13.63;;;;;;;13.51;100.00;101201.19;4948438;28;20217;-77
2022/10/22 07:40:52;;;;;;;14.80;13.23;;;;;;;13.79;100.00;101204.94;4944545;28;20213;-78
2022/10/22 07:43:17;;;;;;;16.00;14.07;;;;;;;14.05;100.00;101199.25;4950679;28;20224;-78
2022/10/22 07:45:44;;;;;;;15.37;13.67;;;;;;;14.29;100.00;101190.94;4947272;29;20225;-78
2022/10/22 07:48:09;;;;;;;16.57;13.63;;;;;;;14.57;100.00;101191.22;4950381;29;20574;-77
2022/10/22 07:50:34;;;;;;;16.43;13.87;;;;;;;14.78;100.00;101196.56;4949206;29;20208;-78
2022/10/22 07:53:00;;;;;;;15.37;13.63;;;;;;;14.90;100.00;101204.41;4950660;28;20181;-77
2022/10/22 07:55:25;;;;;;;14.87;13.17;;;;;;;15.03;100.00;101203.63;4949851;29;20193;-76
2022/10/22 07:57:51;;;;;;;16.27;14.57;;;;;;;15.21;100.00;101213.22;4950013;29;20259;-77
2022/10/22 08:00:17;;;;;;;14.93;12.60;;;;;;;15.35;100.00;101207.31;4948529;28;20216;-78
2022/10/22 08:02:44;;;;;;;18.57;13.97;;;;;;;15.42;99.75;101206.50;4948640;29;20650;-77
2022/10/22 08:05:10;;;;;;;16.53;13.40;;;;;;;15.61;99.11;101212.63;4948000;28;20201;-77
2022/10/22 08:07:35;;;;;;;16.77;14.60;;;;;;;15.72;98.15;101216.09;4947576;28;21172;-79
2022/10/22 08:10:00;;;;;;;15.43;13.83;;;;;;;15.92;97.79;101217.03;4927609;29;20197;-76
2022/10/22 08:12:26;;;;;;;17.90;13.83;;;;;;;16.01;97.12;101217.06;4948312;28;20626;-77
2022/10/22 08:14:51;;;;;;;15.70;13.77;;;;;;;16.04;96.42;101219.69;4950149;28;20244;-77
2022/10/22 08:17:17;;;;;;;17.77;13.73;;;;;;;16.44;95.51;101212.06;4949430;28;20569;-77
2022/10/22 08:19:42;;;;;;;17.87;14.73;;;;;;;16.29;94.53;101217.16;4948157;29;20215;-77
2022/10/22 08:22:08;;;;;;;17.07;13.37;;;;;;;16.49;94.15;101215.50;4948889;28;20212;-77
2022/10/22 08:24:34;;;;;;;15.43;12.57;;;;;;;16.53;93.42;101231.91;4948097;28;20815;-78
2022/10/22 08:26:59;;;;;;;15.33;13.30;;;;;;;16.85;92.42;101228.47;4950962;28;20201;-77
2022/10/22 08:29:25;;;;;;;16.00;13.80;;;;;;;16.81;92.09;101229.31;4947545;29;20237;-78
2022/10/22 08:31:52;;;;;;;13.77;12.23;;;;;;;17.00;90.78;101228.47;4948063;28;20308;-77
2022/10/22 08:34:18;;;;;;;13.97;12.00;;;;;;;17.53;89.99;101231.88;4947736;29;20678;-77
2022/10/22 08:36:44;;;;;;;12.93;11.53;;;;;;;17.44;89.15;101233.59;4950620;28;20189;-79
2022/10/22 08:39:10;;;;;;;12.35;10.38;;;;;;;17.67;87.45;101242.19;4948934;28;20260;-78
2022/10/22 08:41:52;;;;;;;11.18;9.98;;;;;;;17.71;86.99;101246.50;4950104;28;20268;-78
2022/10/22 08:44:42;;;;;;;12.98;9.40;;;;;;;18.36;85.47;101235.00;4949926;28;20197;-78
2022/10/22 08:47:10;;;;;;;12.65;8.63;;;;;;;19.25;80.52;101227.38;4948957;29;20244;-78
2022/10/22 08:49:39;;;;;;;9.50;8.60;;;;;;;21.23;72.68;101222.06;4952382;28;20197;-78
2022/10/22 08:52:07;;;;;;;11.15;8.73;;;;;;;21.95;67.94;101225.91;4946317;29;20224;-77
2022/10/22 08:54:49;;;;;;;10.32;8.65;;;;;;;23.17;63.93;101222.16;4951923;29;20761;-77
2022/10/22 08:57:27;;;;;;;12.13;8.88;;;;;;;22.83;64.01;101223.91;4944460;29;20185;-77
2022/10/22 08:59:56;;;;;;;14.65;8.63;;;;;;;22.98;62.39;101219.16;4946325;29;20670;-77
2022/10/22 09:02:33;;;;;;;9.93;8.85;;;;;;;23.18;61.89;101219.50;4953758;28;20546;-77
2022/10/22 09:05:16;;;;;;;10.13;9.02;;;;;;;23.28;62.01;101215.78;4967348;28;20204;-77
2022/10/22 09:07:42;;;;;;;9.73;8.18;;;;;;;23.86;59.43;101222.88;4949361;29;20189;-77
2022/10/22 09:10:11;;;;;;;9.90;8.90;;;;;;;24.56;57.23;101227.72;4932476;28;20346;-77
2022/10/22 09:12:37;;;;;;;9.05;8.07;;;;;;;25.61;55.22;101221.56;4946192;28;20587;-77
2022/10/22 09:15:03;;;;;;;8.95;7.65;;;;;;;25.90;53.50;101221.34;4952145;28;20189;-78
2022/10/22 09:17:55;;;;;;;8.93;8.00;;;;;;;25.51;53.34;101223.63;4952831;28;20193;-78
2022/10/22 09:20:33;;;;;;;11.88;7.90;;;;;;;26.11;52.65;101220.56;4947504;28;20224;-77
2022/10/22 09:23:07;;;;;;;7.95;6.90;;;;;;;26.72;52.22;101212.88;4949086;29;20193;-77
2022/10/22 09:25:36;;;;;;;9.35;7.40;;;;;;;26.79;51.02;101218.69;4960601;28;20312;-76
2022/10/22 09:28:04;;;;;;;9.50;7.68;;;;;;;26.53;51.92;101214.47;4947926;29;20655;-76
2022/10/22 09:30:35;;;;;;;8.32;7.30;;;;;;;28.07;48.25;101208.66;4950041;28;20683;-76
2022/10/22 09:33:06;;;;;;;8.05;7.28;;;;;;;27.60;49.08;101212.56;4949266;29;20235;-78
2022/10/22 09:35:34;;;;;;;12.27;7.18;;;;;;;27.86;50.20;101209.66;4950027;29;20613;-76
2022/10/22 09:38:07;;;;;;;7.68;6.65;;;;;;;28.15;49.40;101211.78;4950618;29;20204;-78
2022/10/22 09:40:43;;;;;;;8.45;6.60;;;;;;;28.75;46.68;101206.25;4948848;28;20220;-77
2022/10/22 09:43:12;;;;;;;6.03;5.40;;;;;;;28.83;45.61;101206.72;4950892;29;20208;-77
2022/10/22 09:45:38;;;;;;;7.70;5.45;;;;;;;28.52;46.49;101206.50;4947597;28;20276;-78
2022/10/22 09:48:25;;;;;;;8.07;5.50;;;;;;;29.13;45.56;101211.34;4949200;28;20642;-77
2022/10/22 09:51:17;;;;;;;7.80;5.25;;;;;;;28.55;45.41;101203.75;4963564;28;20205;-76
2022/10/22 09:53:45;;;;;;;6.78;4.75;;;;;;;30.60;41.73;101205.03;4929613;29;20209;-77
2022/10/22 09:56:24;;;;;;;8.25;3.45;;;;;;;30.13;42.26;101205.06;4948949;28;20292;-75
2022/10/22 09:58:50;;;;;;;7.47;4.40;;;;;;;30.44;41.33;101209.50;4948346;29;20189;-77
2022/10/22 10:01:24;;;;;;;6.90;3.92;;;;;;;30.16;42.09;101204.06;4948842;29;20263;-78
2022/10/22 10:03:50;;;;;;;7.38;4.10;;;;;;;30.50;41.40;101208.28;4947921;29;20188;-77
2022/10/22 10:06:21;;;;;;;7.07;4.05;;;;;;;30.25;41.73;101210.63;4948915;29;20622;-76
2022/10/22 10:08:48;;;;;;;6.10;3.45;;;;;;;31.23;39.97;101206.63;4949226;29;20196;-76
2022/10/22 10:11:27;;;;;;;6.00;3.53;;;;;;;31.60;41.03;101215.84;4941957;28;20288;-77
2022/10/22 10:14:06;;;;;;;5.53;3.05;;;;;;;32.42;37.26;101204.41;4950245;29;20193;-76
2022/10/22 10:16:34;;;;;;;6.50;3.28;;;;;;;30.33;40.36;101221.63;4946050;29;20212;-76
2022/10/22 10:19:21;;;;;;;5.20;2.97;;;;;;;31.09;39.00;101219.81;4947740;28;20192;-76
2022/10/22 10:22:06;;;;;;;6.47;3.40;;;;;;;30.92;38.81;101217.28;4946883;29;20312;-76
2022/10/22 10:25:13;;;;;;;4.90;3.00;;;;;;;31.52;37.80;101213.66;4937012;28;20641;-77
2022/10/22 10:28:04;;;;;;;7.22;3.25;;;;;;;33.53;35.02;101202.13;4927539;29;20225;-76
2022/10/22 10:30:32;;;;;;;5.38;2.83;;;;;;;34.13;34.39;101195.16;4961584;28;20304;-76
2022/10/22 10:33:30;;;;;;;4.97;2.80;;;;;;;33.81;34.62;101205.44;4947242;29;20202;-77
2022/10/22 10:36:13;;;;;;;4.05;2.53;;;;;;;35.00;33.24;101200.06;4947941;29;20189;-76
2022/10/22 10:38:42;;;;;;;4.97;3.00;;;;;;;33.36;33.84;101213.06;4948589;29;20211;-76
2022/10/22 10:41:40;;;;;;;5.03;2.70;;;;;;;34.34;33.17;101197.13;4932058;29;20717;-76
2022/10/22 10:44:40;;;;;;;5.28;2.95;;;;;;;33.99;32.93;101203.28;4940356;29;20208;-75
2022/10/22 10:47:53;;;;;;;5.40;3.33;;;;;;;34.01;34.06;101207.53;4945363;29;20208;-75
2022/10/22 10:50:27;;;;;;;8.82;3.60;;;;;;;33.33;34.07;101210.66;4931179;29;20283;-76
2022/10/22 10:53:01;;;;;;;5.30;3.30;;;;;;;34.45;33.81;101202.53;4946248;29;20197;-77
2022/10/22 10:56:04;;;;;;;5.95;3.47;;;;;;;33.85;33.40;101204.28;4947424;29;20215;-76
2022/10/22 10:59:21;;;;;;;6.32;3.35;;;;;;;34.97;31.29;101200.34;4929410;29;20212;-77
2022/10/22 11:01:47;;;;;;;5.85;3.33;;;;;;;35.18;31.68;101205.84;4927242;29;20237;-76
2022/10/22 11:04:33;;;;;;;6.05;3.85;;;;;;;35.05;31.58;101200.59;4946886;29;20248;-76
2022/10/22 11:07:04;;;;;;;6.03;3.20;;;;;;;36.18;30.08;101202.25;4923908;29;20272;-77
2022/10/22 11:09:44;;;;;;;5.28;3.45;;;;;;;37.01;29.47;101206.84;4944325;28;20185;-76
2022/10/22 11:12:17;;;;;;;6.13;3.08;;;;;;;36.71;28.97;101209.44;4948555;29;20205;-76
2022/10/22 11:15:19;;;;;;;5.25;3.13;;;;;;;35.53;30.81;101203.97;4950026;29;20224;-76
2022/10/22 11:17:47;;;;;;;6.00;3.15;;;;;;;36.78;29.72;101200.78;4945804;29;20200;-77
2022/10/22 11:20:23;;;;;;;4.90;2.95;;;;;;;37.08;28.69;101200.00;4951589;28;20917;-77
2022/10/22 11:23:00;;;;;;;6.13;3.13;;;;;;;35.37;30.56;101206.13;4950061;29;20264;-76